Terminal Aerodrome Forecast
Issued by NWS

Home | Current Version | Previous Version | Text Only | Print | Product List | Glossary On
Versions: 1 2 3 4 5 6 7 8 9 10 11 12 13 14
740
FTUS43 KAPX 061127
TAFAPN
TAF
KAPN 061127Z 0612/0712 21006KT P6SM OVC080 WS020/25032KT
     FM061700 26010G18KT P6SM OVC019
     FM070000 23005KT P6SM BKN022 OVC060
     FM070400 19005KT P6SM SCT022 OVC090=

USA.gov is the U.S. government's official web portal to all federal, state and local government web resources and services.